Time;durP1;ratioP1;P1;durP2;ratioP2;P2;SDS_P1;SDS_P2;PMS_P1;PMS_P2;Temp;Humidity;BMP_temperature;BMP_pressure;BME280_temperature;BME280_humidity;BME280_pressure;Samples;Min_cycle;Max_cycle;Signal;HPM_P1;HPM_P2
2021/11/24 00:00:19;;;;;;;33.45;18.92;;;6.00;99.90;;;;;;4944737;28;20031;-66
2021/11/24 00:02:46;;;;;;;34.97;19.42;;;6.00;99.90;;;;;;4935884;28;20031;-66
2021/11/24 00:05:11;;;;;;;36.30;19.63;;;6.00;99.90;;;;;;4926469;28;20122;-66
2021/11/24 00:07:39;;;;;;;38.28;19.88;;;6.00;99.90;;;;;;4928853;28;20126;-66
2021/11/24 00:10:05;;;;;;;34.17;18.88;;;5.90;99.90;;;;;;4939016;28;20046;-66
2021/11/24 00:12:31;;;;;;;34.78;20.48;;;5.90;99.90;;;;;;4947186;28;20039;-66
2021/11/24 00:14:56;;;;;;;38.72;21.60;;;5.90;99.90;;;;;;4929102;28;20043;-66
2021/11/24 00:17:22;;;;;;;39.67;21.58;;;5.90;99.90;;;;;;4940974;28;20027;-65
2021/11/24 00:19:47;;;;;;;37.65;20.42;;;5.90;99.90;;;;;;4938482;28;20027;-66
2021/11/24 00:22:13;;;;;;;41.13;21.15;;;5.90;99.90;;;;;;4949207;28;20493;-66
2021/11/24 00:24:39;;;;;;;43.33;22.58;;;5.90;99.90;;;;;;4934715;28;25744;-66
2021/11/24 00:27:04;;;;;;;43.35;22.58;;;5.90;99.90;;;;;;4948970;28;20573;-66
2021/11/24 00:29:30;;;;;;;42.60;22.20;;;6.00;99.90;;;;;;4934725;28;20027;-66
2021/11/24 00:31:56;;;;;;;43.80;24.25;;;6.00;99.90;;;;;;4930905;28;20396;-66
2021/11/24 00:34:21;;;;;;;44.92;23.30;;;6.00;99.90;;;;;;4940632;28;20039;-66
2021/11/24 00:36:47;;;;;;;40.60;23.98;;;6.00;99.90;;;;;;4948462;28;20062;-66
2021/11/24 00:39:12;;;;;;;39.20;24.10;;;6.00;99.90;;;;;;4935324;28;20023;-65
2021/11/24 00:41:38;;;;;;;49.53;23.77;;;5.90;99.90;;;;;;4945300;28;20672;-66
2021/11/24 00:44:03;;;;;;;47.65;24.15;;;5.90;99.90;;;;;;4939541;28;20038;-66
2021/11/24 00:46:29;;;;;;;50.20;25.13;;;5.90;99.90;;;;;;4935261;28;20088;-66
2021/11/24 00:48:54;;;;;;;43.17;25.55;;;5.90;99.90;;;;;;4932981;28;20039;-66
2021/11/24 00:51:20;;;;;;;49.67;25.70;;;5.90;99.90;;;;;;4937474;28;20031;-66
2021/11/24 00:53:45;;;;;;;43.95;25.67;;;5.90;99.90;;;;;;4941182;28;20137;-66
2021/11/24 00:56:11;;;;;;;46.58;25.00;;;5.90;99.90;;;;;;4934219;28;20073;-66
2021/11/24 00:58:36;;;;;;;41.05;24.92;;;5.90;99.90;;;;;;4942341;28;20035;-66
2021/11/24 01:01:03;;;;;;;42.15;25.08;;;5.80;99.90;;;;;;4934006;28;20032;-66
2021/11/24 01:03:28;;;;;;;41.55;24.52;;;5.80;99.90;;;;;;4942623;28;20089;-66
2021/11/24 01:05:54;;;;;;;46.88;25.70;;;5.80;99.90;;;;;;4934790;28;20035;-66
2021/11/24 01:08:20;;;;;;;41.17;24.80;;;5.80;99.90;;;;;;4941604;28;20023;-66
2021/11/24 01:10:45;;;;;;;40.50;23.50;;;5.80;99.90;;;;;;4937227;28;20050;-66
2021/11/24 01:13:13;;;;;;;41.20;24.02;;;5.80;99.90;;;;;;4945573;28;20035;-66
2021/11/24 01:15:39;;;;;;;39.33;24.73;;;5.80;99.90;;;;;;4928693;28;20399;-66
2021/11/24 01:18:05;;;;;;;45.90;23.98;;;5.80;99.90;;;;;;4937710;28;20031;-66
2021/11/24 01:20:33;;;;;;;38.55;23.92;;;5.80;99.90;;;;;;4939799;28;20395;-66
2021/11/24 01:22:59;;;;;;;40.20;24.33;;;5.80;99.90;;;;;;4930228;28;20031;-66
2021/11/24 01:25:26;;;;;;;42.45;24.08;;;5.80;99.90;;;;;;4934785;28;20043;-66
2021/11/24 01:27:51;;;;;;;45.45;24.42;;;5.80;99.90;;;;;;4933910;28;20031;-66
2021/11/24 01:30:17;;;;;;;45.65;25.15;;;5.80;99.90;;;;;;4926193;28;20467;-66
2021/11/24 01:32:43;;;;;;;45.45;23.73;;;5.80;99.90;;;;;;4932278;28;20022;-66
2021/11/24 01:35:09;;;;;;;44.75;24.85;;;5.80;99.90;;;;;;4941702;28;20027;-66
2021/11/24 01:37:35;;;;;;;45.70;25.50;;;5.80;99.90;;;;;;4946057;28;20262;-66
2021/11/24 01:40:03;;;;;;;49.28;24.40;;;5.80;99.90;;;;;;4938094;28;20303;-66
2021/11/24 01:42:28;;;;;;;42.80;24.33;;;5.90;99.90;;;;;;4935575;28;20399;-66
2021/11/24 01:44:54;;;;;;;44.33;23.60;;;5.80;99.90;;;;;;4938860;28;20031;-66
2021/11/24 01:47:20;;;;;;;46.70;23.98;;;5.90;99.90;;;;;;4938563;28;20196;-66
2021/11/24 01:49:48;;;;;;;42.13;23.58;;;5.90;99.90;;;;;;4939678;28;20119;-66
2021/11/24 01:52:14;;;;;;;40.08;22.95;;;5.90;99.90;;;;;;4939272;28;20167;-66
2021/11/24 01:54:39;;;;;;;49.53;23.70;;;5.90;99.90;;;;;;4936201;28;20069;-66
2021/11/24 01:57:05;;;;;;;51.15;23.77;;;5.90;99.90;;;;;;4939678;28;20256;-66
2021/11/24 01:59:31;;;;;;;48.22;23.27;;;5.90;99.90;;;;;;4933036;28;20136;-66
2021/11/24 02:01:56;;;;;;;38.17;23.30;;;6.00;99.90;;;;;;4945769;28;20192;-66
2021/11/24 02:04:22;;;;;;;45.60;23.30;;;6.00;99.90;;;;;;4938478;28;20482;-66
2021/11/24 02:06:50;;;;;;;49.55;23.45;;;6.00;99.90;;;;;;4948207;28;20107;-66
2021/11/24 02:09:16;;;;;;;44.53;23.48;;;6.00;99.90;;;;;;4932623;28;20423;-66
2021/11/24 02:11:44;;;;;;;44.80;24.20;;;6.00;99.90;;;;;;4947965;28;20423;-66
2021/11/24 02:14:11;;;;;;;42.58;23.42;;;6.00;99.90;;;;;;4940174;28;20026;-66
2021/11/24 02:16:46;;;;;;;45.83;23.17;;;6.00;99.90;;;;;;4937171;28;20091;-66
2021/11/24 02:19:12;;;;;;;45.15;23.48;;;6.00;99.90;;;;;;4934508;28;20097;-66
2021/11/24 02:21:38;;;;;;;46.67;25.38;;;6.00;99.90;;;;;;4939834;28;20493;-66
2021/11/24 02:24:03;;;;;;;45.92;25.15;;;6.00;99.90;;;;;;4941741;28;20545;-66
2021/11/24 02:26:29;;;;;;;45.38;23.80;;;6.00;99.90;;;;;;4936979;28;20063;-66
2021/11/24 02:28:55;;;;;;;46.95;24.48;;;5.90;99.90;;;;;;4945872;28;20024;-66
2021/11/24 02:31:23;;;;;;;52.97;25.75;;;6.00;99.90;;;;;;4933120;28;20342;-66
2021/11/24 02:33:54;;;;;;;48.55;24.17;;;6.00;99.90;;;;;;4931934;28;20051;-66
2021/11/24 02:36:19;;;;;;;48.33;23.42;;;6.00;99.90;;;;;;4940116;28;20692;-66
2021/11/24 02:38:45;;;;;;;44.55;23.05;;;6.00;99.90;;;;;;4939576;28;20045;-66
2021/11/24 02:41:11;;;;;;;48.75;24.67;;;6.00;99.90;;;;;;4947646;28;20057;-66
2021/11/24 02:43:37;;;;;;;45.65;24.52;;;6.00;99.90;;;;;;4942634;28;20043;-66
2021/11/24 02:46:03;;;;;;;42.30;23.25;;;6.00;99.90;;;;;;4942417;28;20063;-66
2021/11/24 02:48:28;;;;;;;42.33;24.35;;;6.00;99.90;;;;;;4951324;28;20031;-66
2021/11/24 02:50:54;;;;;;;42.40;24.27;;;6.00;99.90;;;;;;4940988;28;20031;-66
2021/11/24 02:53:25;;;;;;;45.00;24.65;;;6.00;99.90;;;;;;4942961;28;20206;-66
2021/11/24 02:55:51;;;;;;;45.53;24.60;;;6.00;99.90;;;;;;4934853;28;20031;-66
2021/11/24 02:58:17;;;;;;;49.63;24.00;;;6.00;99.90;;;;;;4938961;28;20078;-66
2021/11/24 03:00:42;;;;;;;51.05;23.75;;;6.00;99.90;;;;;;4936607;28;20401;-66
2021/11/24 03:03:08;;;;;;;45.55;23.55;;;6.10;99.90;;;;;;4930493;28;20368;-66
2021/11/24 03:05:33;;;;;;;44.50;23.58;;;6.10;99.90;;;;;;4936756;28;20043;-66
2021/11/24 03:07:59;;;;;;;43.85;23.70;;;6.00;99.90;;;;;;4938804;28;20463;-66
2021/11/24 03:10:25;;;;;;;42.90;23.95;;;6.10;99.90;;;;;;4942987;28;20106;-66
2021/11/24 03:12:51;;;;;;;42.80;23.25;;;6.10;99.90;;;;;;4942062;28;20341;-66
2021/11/24 03:15:16;;;;;;;45.60;24.10;;;6.10;99.90;;;;;;4928538;28;20039;-66
2021/11/24 03:17:42;;;;;;;44.75;23.05;;;6.10;99.90;;;;;;4939841;28;20054;-66
2021/11/24 03:20:09;;;;;;;47.33;23.27;;;6.10;99.90;;;;;;4937823;28;20034;-66
2021/11/24 03:22:35;;;;;;;45.35;23.40;;;6.10;99.90;;;;;;4943111;28;20031;-66
2021/11/24 03:25:01;;;;;;;45.47;23.27;;;6.10;99.90;;;;;;4945395;28;20037;-66
2021/11/24 03:27:31;;;;;;;46.22;23.67;;;6.10;99.90;;;;;;4944902;28;25085;-66
2021/11/24 03:29:59;;;;;;;44.92;22.67;;;6.10;99.90;;;;;;4933753;28;20075;-66
2021/11/24 03:32:26;;;;;;;45.08;25.10;;;6.10;99.90;;;;;;4934313;28;20031;-66
2021/11/24 03:34:51;;;;;;;43.33;23.30;;;6.10;99.90;;;;;;4943498;28;20031;-66
2021/11/24 03:37:18;;;;;;;44.55;23.83;;;6.10;99.90;;;;;;4942765;28;20076;-66
2021/11/24 03:39:45;;;;;;;46.33;23.42;;;6.10;99.90;;;;;;4943085;28;20117;-66
2021/11/24 03:42:12;;;;;;;40.03;23.70;;;6.10;99.90;;;;;;4943331;28;20616;-66
2021/11/24 03:44:37;;;;;;;51.47;24.25;;;6.10;99.90;;;;;;4940259;28;20043;-66
2021/11/24 03:47:03;;;;;;;44.22;23.45;;;6.10;99.90;;;;;;4941600;28;20038;-66
2021/11/24 03:49:29;;;;;;;45.28;23.77;;;6.10;99.90;;;;;;4941252;28;20094;-66
2021/11/24 03:51:54;;;;;;;45.33;24.77;;;6.10;99.90;;;;;;4964540;23;20069;-66
2021/11/24 03:54:20;;;;;;;49.75;23.90;;;6.10;99.90;;;;;;4970509;28;20089;-67
2021/11/24 03:56:45;;;;;;;41.58;24.92;;;6.10;99.90;;;;;;4972702;28;20266;-67
2021/11/24 03:59:11;;;;;;;45.08;25.10;;;6.10;99.90;;;;;;4971167;28;20045;-66
2021/11/24 04:01:36;;;;;;;47.08;25.58;;;6.10;99.90;;;;;;4957072;28;20066;-67
2021/11/24 04:04:02;;;;;;;44.38;25.40;;;6.10;99.90;;;;;;4952097;28;20029;-64
2021/11/24 04:06:29;;;;;;;43.15;25.70;;;6.10;99.90;;;;;;4954389;28;20027;-67
2021/11/24 04:08:55;;;;;;;48.70;25.67;;;6.10;99.90;;;;;;4950170;28;20023;-64
2021/11/24 04:11:20;;;;;;;44.58;25.90;;;6.00;99.90;;;;;;4950810;28;20443;-64
2021/11/24 04:13:46;;;;;;;42.97;24.77;;;6.10;99.90;;;;;;4954026;28;20049;-64
2021/11/24 04:16:12;;;;;;;54.65;27.95;;;6.00;99.90;;;;;;4959256;28;20436;-64
2021/11/24 04:18:37;;;;;;;51.08;26.80;;;6.10;99.90;;;;;;4955638;28;20066;-64
2021/11/24 04:21:03;;;;;;;47.00;26.25;;;6.10;99.90;;;;;;4956420;28;20035;-65
2021/11/24 04:23:28;;;;;;;51.85;26.10;;;6.00;99.90;;;;;;4959058;28;20181;-64
2021/11/24 04:25:54;;;;;;;46.58;24.77;;;6.10;99.90;;;;;;4953996;28;20446;-64
2021/11/24 04:28:19;;;;;;;47.90;25.35;;;6.00;99.90;;;;;;4956662;28;20027;-64
2021/11/24 04:30:45;;;;;;;57.88;26.85;;;6.00;99.90;;;;;;4951614;28;20027;-64
2021/11/24 04:33:11;;;;;;;49.97;26.40;;;6.10;99.90;;;;;;4957158;28;20082;-64
2021/11/24 04:35:38;;;;;;;49.78;24.98;;;6.10;99.90;;;;;;4955471;28;20039;-64
2021/11/24 04:38:03;;;;;;;48.17;25.65;;;6.00;99.90;;;;;;4960403;28;20031;-63
2021/11/24 04:40:29;;;;;;;54.00;24.92;;;6.00;99.90;;;;;;4955687;28;20035;-64
2021/11/24 04:42:55;;;;;;;44.33;24.65;;;6.10;99.90;;;;;;4956209;28;20091;-64
2021/11/24 04:45:21;;;;;;;44.28;23.80;;;6.10;99.90;;;;;;4955022;28;20031;-64
2021/11/24 04:47:48;;;;;;;43.13;23.90;;;6.10;99.90;;;;;;4955793;28;20109;-64
2021/11/24 04:50:15;;;;;;;43.15;23.52;;;6.00;99.90;;;;;;4956217;28;20489;-65
2021/11/24 04:52:41;;;;;;;53.92;24.45;;;6.10;99.90;;;;;;4959006;28;20050;-64
2021/11/24 04:55:07;;;;;;;42.97;22.67;;;6.10;99.90;;;;;;4951612;28;20089;-63
2021/11/24 04:57:33;;;;;;;38.70;22.27;;;6.10;99.90;;;;;;4954301;28;20079;-63
2021/11/24 04:59:58;;;;;;;43.28;22.25;;;6.10;99.90;;;;;;4956795;28;20055;-64
2021/11/24 05:02:24;;;;;;;51.05;22.98;;;6.10;99.90;;;;;;4952040;28;20058;-64
2021/11/24 05:04:49;;;;;;;44.75;22.88;;;6.10;99.90;;;;;;4958191;28;20038;-64
2021/11/24 05:07:15;;;;;;;48.78;23.00;;;6.10;99.90;;;;;;4956270;28;20046;-64
2021/11/24 05:09:40;;;;;;;52.88;23.00;;;6.00;99.90;;;;;;4957405;28;20034;-64
2021/11/24 05:12:06;;;;;;;48.30;23.67;;;6.00;99.90;;;;;;4947884;28;20048;-63
2021/11/24 05:14:35;;;;;;;44.88;22.75;;;6.00;99.90;;;;;;4959765;28;20107;-64
2021/11/24 05:17:04;;;;;;;48.35;21.65;;;6.00;99.90;;;;;;4953541;28;20038;-64
2021/11/24 05:19:32;;;;;;;44.25;22.55;;;6.00;99.90;;;;;;4944668;28;20101;-64
2021/11/24 05:21:58;;;;;;;44.80;22.02;;;6.00;99.90;;;;;;4957391;28;20106;-65
2021/11/24 05:24:23;;;;;;;57.75;22.50;;;6.00;99.90;;;;;;4959540;28;20081;-64
2021/11/24 05:26:49;;;;;;;44.95;23.05;;;6.00;99.90;;;;;;4956651;28;20054;-64
2021/11/24 05:29:15;;;;;;;44.78;22.73;;;6.00;99.90;;;;;;4961118;28;20034;-64
2021/11/24 05:31:41;;;;;;;53.22;23.52;;;6.00;99.90;;;;;;4947535;28;20169;-64
2021/11/24 05:34:06;;;;;;;49.40;22.45;;;6.00;99.90;;;;;;4937458;28;20027;-64
2021/11/24 05:36:34;;;;;;;48.97;23.23;;;6.00;99.90;;;;;;4935609;28;20027;-64
2021/11/24 05:38:59;;;;;;;48.72;22.63;;;6.00;99.90;;;;;;4952356;28;20031;-63
2021/11/24 05:41:25;;;;;;;54.78;22.42;;;6.00;99.90;;;;;;4946731;28;20418;-65
2021/11/24 05:43:53;;;;;;;52.25;22.70;;;6.00;99.90;;;;;;4956811;28;20303;-64
2021/11/24 05:46:41;;;;;;;53.03;21.90;;;6.00;99.90;;;;;;4956410;28;20033;-65
2021/11/24 05:49:06;;;;;;;52.75;21.63;;;6.00;99.90;;;;;;4948779;28;20031;-64
2021/11/24 05:51:32;;;;;;;41.47;19.80;;;6.00;99.90;;;;;;4959547;28;20053;-64
2021/11/24 05:53:57;;;;;;;51.75;21.63;;;6.10;99.90;;;;;;4946523;28;20126;-64
2021/11/24 05:56:23;;;;;;;43.72;20.15;;;6.10;99.90;;;;;;4948044;28;20027;-65
2021/11/24 05:58:48;;;;;;;47.67;20.98;;;6.10;99.90;;;;;;4951189;28;20050;-65
2021/11/24 06:01:14;;;;;;;53.17;21.75;;;6.10;99.90;;;;;;4947259;28;20114;-65
2021/11/24 06:03:39;;;;;;;49.65;21.65;;;6.10;99.90;;;;;;4949287;28;20046;-65
2021/11/24 06:06:05;;;;;;;50.78;21.02;;;6.10;99.90;;;;;;4941500;28;20027;-65
2021/11/24 06:08:30;;;;;;;58.33;22.58;;;6.10;99.90;;;;;;4955900;28;20037;-65
2021/11/24 06:10:56;;;;;;;54.28;22.15;;;6.10;99.90;;;;;;4949794;28;20518;-65
2021/11/24 06:13:22;;;;;;;56.30;22.10;;;6.10;99.90;;;;;;4941089;28;20523;-65
2021/11/24 06:15:47;;;;;;;53.53;22.52;;;6.00;99.90;;;;;;4951585;28;20125;-65
2021/11/24 06:18:13;;;;;;;48.05;20.65;;;6.10;99.90;;;;;;4961199;28;20185;-65
2021/11/24 06:20:39;;;;;;;51.65;21.55;;;6.00;99.90;;;;;;4954788;28;20059;-65
2021/11/24 06:23:06;;;;;;;49.25;22.75;;;6.10;99.90;;;;;;4947433;28;20027;-65
2021/11/24 06:25:32;;;;;;;55.67;22.90;;;6.10;99.90;;;;;;4956235;28;20362;-65
2021/11/24 06:27:57;;;;;;;58.63;21.65;;;6.10;99.90;;;;;;4948057;28;20039;-64
2021/11/24 06:30:24;;;;;;;49.25;20.67;;;6.00;99.90;;;;;;4943999;28;20106;-64
2021/11/24 06:32:49;;;;;;;46.67;20.70;;;6.00;99.90;;;;;;4948752;28;20414;-65
2021/11/24 06:35:16;;;;;;;47.92;20.33;;;6.00;99.90;;;;;;4956684;28;20512;-65
2021/11/24 06:37:42;;;;;;;48.50;19.92;;;6.00;99.90;;;;;;4959512;28;20449;-65
2021/11/24 06:40:09;;;;;;;44.83;19.80;;;6.00;99.90;;;;;;4955699;28;20515;-65
2021/11/24 06:42:34;;;;;;;59.95;20.92;;;5.90;99.90;;;;;;4949138;28;20181;-65
2021/11/24 06:45:00;;;;;;;53.42;19.95;;;6.00;99.90;;;;;;4950187;28;20437;-65
2021/11/24 06:47:26;;;;;;;48.85;19.92;;;6.00;99.90;;;;;;4951377;28;20046;-67
2021/11/24 06:49:51;;;;;;;48.00;19.65;;;6.00;99.90;;;;;;4949334;28;20030;-65
2021/11/24 06:52:17;;;;;;;52.80;20.05;;;6.00;99.90;;;;;;4953796;28;20102;-65
2021/11/24 06:54:42;;;;;;;51.45;21.15;;;5.90;99.90;;;;;;4948585;28;20293;-66
2021/11/24 06:57:08;;;;;;;48.97;20.33;;;5.90;99.90;;;;;;4954660;28;20048;-66
2021/11/24 06:59:33;;;;;;;53.67;22.00;;;5.90;99.90;;;;;;4949726;28;20034;-65
2021/11/24 07:01:59;;;;;;;53.65;22.35;;;5.90;99.90;;;;;;4951872;28;20031;-66
2021/11/24 07:04:25;;;;;;;57.67;24.38;;;5.90;99.90;;;;;;4958648;28;20033;-66
2021/11/24 07:06:50;;;;;;;58.55;23.90;;;5.90;99.90;;;;;;4954471;28;20125;-65
2021/11/24 07:09:16;;;;;;;59.45;22.95;;;5.90;99.90;;;;;;4953137;28;20427;-65
2021/11/24 07:11:42;;;;;;;62.90;25.02;;;5.90;99.90;;;;;;4953301;28;20425;-65
2021/11/24 07:14:08;;;;;;;65.43;25.13;;;5.90;99.90;;;;;;4944607;28;20027;-66
2021/11/24 07:16:35;;;;;;;66.32;24.98;;;5.90;99.90;;;;;;4946272;28;20134;-66
2021/11/24 07:19:00;;;;;;;60.92;23.92;;;5.90;99.90;;;;;;4948053;28;20231;-65
2021/11/24 07:21:26;;;;;;;68.32;25.67;;;5.90;99.90;;;;;;4956719;28;20524;-65
2021/11/24 07:23:52;;;;;;;68.15;25.85;;;5.90;99.90;;;;;;4955555;28;20145;-65
2021/11/24 07:26:17;;;;;;;73.75;26.98;;;5.90;99.90;;;;;;4957825;28;20472;-66
2021/11/24 07:28:43;;;;;;;67.07;25.85;;;5.90;99.90;;;;;;4949049;28;20502;-65
2021/11/24 07:31:09;;;;;;;80.55;27.05;;;5.80;99.90;;;;;;4955128;28;20026;-65
2021/11/24 07:33:35;;;;;;;66.47;25.52;;;5.90;99.90;;;;;;4952801;28;20043;-65
2021/11/24 07:36:00;;;;;;;73.18;25.45;;;5.90;99.90;;;;;;4953212;28;20044;-65
2021/11/24 07:38:26;;;;;;;85.05;27.45;;;5.90;99.90;;;;;;4958937;28;20371;-65
2021/11/24 07:40:51;;;;;;;72.30;26.40;;;5.80;99.90;;;;;;4959300;28;20054;-66
2021/11/24 07:43:17;;;;;;;76.40;26.35;;;5.80;99.90;;;;;;4951948;28;20042;-65
2021/11/24 07:45:42;;;;;;;71.05;26.00;;;5.80;99.90;;;;;;4950457;28;20033;-65
2021/11/24 07:48:08;;;;;;;75.50;26.55;;;5.80;99.90;;;;;;4958095;28;20046;-65
2021/11/24 07:50:33;;;;;;;76.13;26.35;;;5.80;99.90;;;;;;4952390;28;20031;-65
2021/11/24 07:52:59;;;;;;;73.65;25.23;;;5.80;99.90;;;;;;4961228;28;20038;-66
2021/11/24 07:55:24;;;;;;;79.60;25.23;;;5.90;99.90;;;;;;4959044;28;20042;-65
2021/11/24 07:57:50;;;;;;;73.68;24.58;;;5.90;99.90;;;;;;4955012;28;20035;-65
2021/11/24 08:00:16;;;;;;;73.75;24.80;;;5.90;99.90;;;;;;4953814;28;20026;-66
2021/11/24 08:02:42;;;;;;;60.17;23.00;;;6.00;99.90;;;;;;4959916;28;20058;-67
2021/11/24 08:05:08;;;;;;;56.78;22.52;;;6.00;99.90;;;;;;4954816;28;20362;-65
2021/11/24 08:07:36;;;;;;;58.97;21.02;;;5.90;99.90;;;;;;4956500;28;20046;-66
2021/11/24 08:10:03;;;;;;;55.97;20.48;;;5.90;99.90;;;;;;4944651;28;20470;-66
2021/11/24 08:12:29;;;;;;;55.72;20.98;;;5.90;99.90;;;;;;4956479;28;20146;-66
2021/11/24 08:14:54;;;;;;;55.63;20.63;;;6.00;99.90;;;;;;4951902;28;20123;-66
2021/11/24 08:17:20;;;;;;;48.88;19.08;;;6.00;99.90;;;;;;4947716;28;20042;-66
2021/11/24 08:19:46;;;;;;;48.80;19.38;;;6.10;99.90;;;;;;4950683;28;20039;-66
2021/11/24 08:22:11;;;;;;;45.38;19.15;;;6.10;99.90;;;;;;4955140;28;20041;-67
2021/11/24 08:24:37;;;;;;;45.40;20.23;;;6.10;99.90;;;;;;4942010;28;20350;-67
2021/11/24 08:27:03;;;;;;;48.50;20.02;;;6.10;99.90;;;;;;4949151;28;20418;-67
2021/11/24 08:29:30;;;;;;;44.67;18.10;;;6.10;99.90;;;;;;4945195;28;20023;-66
2021/11/24 08:31:55;;;;;;;51.17;20.35;;;6.20;99.90;;;;;;4952839;28;20140;-66
2021/11/24 08:34:21;;;;;;;50.65;20.88;;;6.20;99.90;;;;;;4961871;28;20478;-66
2021/11/24 08:36:48;;;;;;;44.95;20.73;;;6.20;99.90;;;;;;4951344;28;20034;-66
2021/11/24 08:39:13;;;;;;;47.60;20.08;;;6.20;99.90;;;;;;4946676;28;20403;-66
2021/11/24 08:41:39;;;;;;;43.53;19.98;;;6.30;99.90;;;;;;4953467;28;20035;-66
2021/11/24 08:44:05;;;;;;;51.30;21.90;;;6.40;99.90;;;;;;4939590;28;20306;-65
2021/11/24 08:46:30;;;;;;;42.65;20.45;;;6.40;99.90;;;;;;4964371;28;20058;-65
2021/11/24 08:48:56;;;;;;;37.83;19.25;;;6.40;99.90;;;;;;4954614;28;20031;-65
2021/11/24 08:51:22;;;;;;;43.08;20.52;;;6.50;99.90;;;;;;4960003;28;20031;-65
2021/11/24 08:53:47;;;;;;;40.67;19.80;;;6.50;99.90;;;;;;4953682;28;20062;-65
2021/11/24 08:56:13;;;;;;;43.22;21.40;;;6.50;99.90;;;;;;4954372;28;20031;-65
2021/11/24 08:58:40;;;;;;;39.40;20.23;;;6.50;99.90;;;;;;4946351;28;20132;-65
2021/11/24 09:01:06;;;;;;;43.05;20.70;;;6.50;99.90;;;;;;4955850;28;20057;-65
2021/11/24 09:03:32;;;;;;;40.90;20.35;;;6.60;99.90;;;;;;4951434;28;20035;-66
2021/11/24 09:05:59;;;;;;;44.28;19.70;;;6.60;99.90;;;;;;4942790;28;20048;-66
2021/11/24 09:08:24;;;;;;;37.63;19.08;;;6.60;99.90;;;;;;4947979;28;20398;-66
2021/11/24 09:10:50;;;;;;;33.83;19.08;;;6.60;99.90;;;;;;4949278;28;20023;-66
2021/11/24 09:13:15;;;;;;;43.55;20.83;;;6.70;99.90;;;;;;4955184;28;20093;-66
2021/11/24 09:15:41;;;;;;;33.70;19.75;;;6.70;99.90;;;;;;4949689;28;20090;-66
2021/11/24 09:18:07;;;;;;;35.45;18.98;;;6.70;99.90;;;;;;4952022;28;20035;-66
2021/11/24 09:20:34;;;;;;;37.60;20.00;;;6.80;99.80;;;;;;4949467;28;20104;-66
2021/11/24 09:23:01;;;;;;;36.92;19.75;;;6.80;99.70;;;;;;4959809;28;20030;-66
2021/11/24 09:25:36;;;;;;;35.92;19.15;;;6.70;99.60;;;;;;4949784;28;20023;-66
2021/11/24 09:28:08;;;;;;;36.65;20.10;;;6.70;99.70;;;;;;4959053;28;20118;-66
2021/11/24 09:30:34;;;;;;;37.60;20.08;;;6.80;99.70;;;;;;4952505;28;20026;-66
2021/11/24 09:33:00;;;;;;;36.55;19.35;;;6.80;99.60;;;;;;4947443;28;20034;-66
2021/11/24 09:35:26;;;;;;;32.88;19.27;;;6.80;99.50;;;;;;4947385;28;20039;-66
2021/11/24 09:37:52;;;;;;;30.67;19.42;;;6.90;99.50;;;;;;4942893;28;20402;-66
2021/11/24 09:40:17;;;;;;;33.58;19.65;;;6.90;99.50;;;;;;4956289;28;20026;-66
2021/11/24 09:42:46;;;;;;;32.10;18.88;;;6.90;99.30;;;;;;4953187;28;20031;-66
2021/11/24 09:45:13;;;;;;;34.17;19.48;;;7.00;99.40;;;;;;4954938;28;20066;-66
2021/11/24 09:47:45;;;;;;;32.47;19.33;;;7.00;99.20;;;;;;4949404;28;20027;-66
2021/11/24 09:50:10;;;;;;;;;;;7.10;99.30;;;;;;4949584;28;20122;-65
2021/11/24 09:52:36;;;;;;;33.58;19.38;;;7.10;99.20;;;;;;4948492;28;20288;-66
2021/11/24 09:55:04;;;;;;;34.75;20.63;;;7.10;99.10;;;;;;4951612;28;20117;-66
2021/11/24 09:57:30;;;;;;;30.95;19.83;;;7.10;99.00;;;;;;4955549;28;20080;-66
2021/11/24 09:59:56;;;;;;;34.65;20.50;;;7.10;98.80;;;;;;4960148;28;20260;-66
2021/11/24 10:02:23;;;;;;;35.15;21.33;;;7.20;98.80;;;;;;4948431;28;20039;-66
2021/11/24 10:04:49;;;;;;;33.65;21.52;;;7.20;98.80;;;;;;4950206;28;20483;-66
2021/11/24 10:07:17;;;;;;;36.28;20.85;;;7.20;98.60;;;;;;4949961;28;20035;-66
2021/11/24 10:09:44;;;;;;;31.35;21.23;;;7.20;98.50;;;;;;4945713;28;20034;-66
2021/11/24 10:12:10;;;;;;;35.05;20.77;;;7.30;98.50;;;;;;4950737;28;20240;-66
2021/11/24 10:14:37;;;;;;;34.90;20.85;;;7.20;98.30;;;;;;4944208;28;20506;-66
2021/11/24 10:17:05;;;;;;;35.03;21.35;;;7.40;98.40;;;;;;4944578;28;20033;-66
2021/11/24 10:19:31;;;;;;;32.30;19.55;;;7.30;98.30;;;;;;4936064;28;20035;-66
2021/11/24 10:22:04;;;;;;;29.23;19.70;;;7.40;98.20;;;;;;4938485;28;20065;-67
2021/11/24 10:24:39;;;;;;;29.63;18.42;;;7.40;97.90;;;;;;4944427;28;20061;-66
2021/11/24 10:27:07;;;;;;;27.15;17.65;;;7.30;97.90;;;;;;4939655;28;20133;-66
2021/11/24 10:29:33;;;;;;;25.42;17.13;;;7.40;97.90;;;;;;4937613;28;20030;-64
2021/11/24 10:32:04;;;;;;;25.95;16.15;;;7.40;97.60;;;;;;4951172;28;20530;-66
2021/11/24 10:34:30;;;;;;;;;;;7.40;97.40;;;;;;4952269;28;20366;-66
2021/11/24 10:37:01;;;;;;;21.17;14.50;;;7.40;97.40;;;;;;4950893;28;19918;-66
2021/11/24 10:39:29;;;;;;;20.60;14.63;;;7.40;97.30;;;;;;4935052;28;20038;-66
2021/11/24 10:42:04;;;;;;;18.00;12.70;;;7.50;97.40;;;;;;4946701;28;20050;-65
2021/11/24 10:44:31;;;;;;;19.08;13.57;;;7.40;97.00;;;;;;4937007;28;20125;-66
2021/11/24 10:46:58;;;;;;;16.33;11.80;;;7.50;97.00;;;;;;4950437;28;20039;-66
2021/11/24 10:49:44;;;;;;;16.25;10.80;;;7.50;97.00;;;;;;4945722;28;20029;-67
2021/11/24 10:52:32;;;;;;;18.50;11.35;;;7.50;96.60;;;;;;4959832;28;20073;-66
2021/11/24 10:55:05;;;;;;;17.80;10.95;;;7.60;96.70;;;;;;4945071;28;20395;-67
2021/11/24 10:57:33;;;;;;;17.20;10.57;;;7.50;96.40;;;;;;4943474;28;20027;-67
2021/11/24 11:00:07;;;;;;;14.95;9.63;;;7.60;96.40;;;;;;4947919;28;20035;-67
2021/11/24 11:02:35;;;;;;;14.23;9.30;;;7.60;96.10;;;;;;4949769;28;20041;-66
2021/11/24 11:05:05;;;;;;;14.43;9.70;;;7.60;96.00;;;;;;4949347;28;20039;-67
2021/11/24 11:07:36;;;;;;;12.40;8.55;;;7.80;96.40;;;;;;4949428;28;20079;-67
2021/11/24 11:10:11;;;;;;;11.63;8.18;;;7.60;95.90;;;;;;4950644;28;20071;-67
2021/11/24 11:12:38;;;;;;;11.25;8.32;;;7.80;96.00;;;;;;4951328;28;20023;-67
2021/11/24 11:15:23;;;;;;;12.15;7.60;;;7.70;95.80;;;;;;4954868;28;20034;-67
2021/11/24 11:18:01;;;;;;;10.88;7.10;;;7.70;95.30;;;;;;4943624;28;20023;-67
2021/11/24 11:20:43;;;;;;;10.75;7.13;;;7.80;95.10;;;;;;4952830;28;20351;-67
2021/11/24 11:23:13;;;;;;;10.20;5.97;;;7.80;95.40;;;;;;4958362;28;20019;-67
2021/11/24 11:25:46;;;;;;;11.10;6.60;;;7.80;94.70;;;;;;4955044;28;20031;-67
2021/11/24 11:28:13;;;;;;;12.77;6.97;;;7.80;94.40;;;;;;4953498;28;20035;-67
2021/11/24 11:30:41;;;;;;;10.85;6.75;;;7.80;94.80;;;;;;4946936;28;20037;-67
2021/11/24 11:33:07;;;;;;;10.57;6.38;;;7.80;94.60;;;;;;4956753;28;20034;-67
2021/11/24 11:35:33;;;;;;;15.43;6.78;;;7.90;94.60;;;;;;4948529;28;20038;-67
2021/11/24 11:37:59;;;;;;;9.60;5.90;;;7.90;93.90;;;;;;4958727;28;20027;-67
2021/11/24 11:40:25;;;;;;;8.05;5.10;;;7.90;94.10;;;;;;4954624;28;20023;-67
2021/11/24 11:42:51;;;;;;;10.43;5.30;;;7.80;93.70;;;;;;4930348;28;20298;-66
2021/11/24 11:45:18;;;;;;;11.40;5.60;;;7.80;93.30;;;;;;4956324;28;20309;-67
2021/11/24 11:47:52;;;;;;;9.98;5.10;;;7.80;93.60;;;;;;4947930;28;20082;-68
2021/11/24 11:50:49;;;;;;;8.98;4.88;;;7.80;93.90;;;;;;4956334;28;20484;-67
2021/11/24 11:53:23;;;;;;;10.52;4.82;;;7.80;93.50;;;;;;4956663;28;20027;-66
2021/11/24 11:56:13;;;;;;;8.27;4.53;;;7.90;93.80;;;;;;4957360;28;20030;-66
2021/11/24 11:58:53;;;;;;;10.43;4.88;;;7.90;93.50;;;;;;4953502;28;20039;-67
2021/11/24 12:01:23;;;;;;;10.05;4.07;;;7.90;93.30;;;;;;4958343;28;20066;-66
2021/11/24 12:03:54;;;;;;;5.57;3.40;;;8.00;93.70;;;;;;4948709;28;20211;-66
2021/11/24 12:06:23;;;;;;;6.25;3.20;;;8.00;93.30;;;;;;4960729;28;20132;-67
2021/11/24 12:09:09;;;;;;;6.35;3.63;;;7.90;92.30;;;;;;4937222;28;20046;-66
2021/11/24 12:14:53;;;;;;;5.28;2.55;;;7.90;92.10;;;;;;4950075;28;20027;-67
2021/11/24 12:17:31;;;;;;;4.78;2.58;;;7.90;91.90;;;;;;4942950;28;20082;-66
2021/11/24 12:20:12;;;;;;;2.92;1.95;;;7.90;91.80;;;;;;4954759;28;20054;-66
2021/11/24 12:22:50;;;;;;;4.28;2.35;;;7.80;91.70;;;;;;4948184;28;20107;-67
2021/11/24 12:25:28;;;;;;;3.72;2.15;;;7.80;91.20;;;;;;4950570;28;20057;-66
2021/11/24 12:27:54;;;;;;;4.53;2.20;;;7.80;91.60;;;;;;4951177;28;20122;-66
2021/11/24 12:33:37;;;;;;;4.07;1.90;;;7.70;90.70;;;;;;4956034;28;20030;-67
2021/11/24 12:36:28;;;;;;;3.53;1.90;;;7.70;91.10;;;;;;4959460;28;20056;-66
2021/11/24 12:39:01;;;;;;;4.43;1.80;;;7.70;90.50;;;;;;4906543;28;20359;-65
2021/11/24 12:41:36;;;;;;;7.22;1.95;;;7.70;90.20;;;;;;4954158;28;20105;-66
2021/11/24 12:44:06;;;;;;;3.50;2.03;;;7.70;90.20;;;;;;4926352;28;20042;-65
2021/11/24 12:46:36;;;;;;;2.47;1.60;;;7.70;90.70;;;;;;4959927;28;20039;-66